sensor_id;sensor_type;location;lat;lon;timestamp;temperature;humidity
12845;DHT22;6489;48.508;9.206;2022-08-19T00:00:47;19.50;99.90
12845;DHT22;6489;48.508;9.206;2022-08-19T00:04:13;19.10;99.90
12845;DHT22;6489;48.508;9.206;2022-08-19T00:07:36;19.30;1.00
12845;DHT22;6489;48.508;9.206;2022-08-19T00:10:59;19.10;99.90
12845;DHT22;6489;48.508;9.206;2022-08-19T00:14:21;18.70;1.00
12845;DHT22;6489;48.508;9.206;2022-08-19T00:21:06;19.20;99.90
12845;DHT22;6489;48.508;9.206;2022-08-19T00:24:31;18.90;99.90
12845;DHT22;6489;48.508;9.206;2022-08-19T00:27:53;19.30;99.90
12845;DHT22;6489;48.508;9.206;2022-08-19T00:31:15;19.50;99.90
12845;DHT22;6489;48.508;9.206;2022-08-19T00:37:59;19.00;99.90
12845;DHT22;6489;48.508;9.206;2022-08-19T00:41:24;19.30;1.00
12845;DHT22;6489;48.508;9.206;2022-08-19T00:44:46;19.40;99.90
12845;DHT22;6489;48.508;9.206;2022-08-19T00:48:08;19.80;99.90
12845;DHT22;6489;48.508;9.206;2022-08-19T00:51:31;19.50;99.90
12845;DHT22;6489;48.508;9.206;2022-08-19T00:54:53;18.60;99.90
12845;DHT22;6489;48.508;9.206;2022-08-19T00:58:19;19.50;99.90
12845;DHT22;6489;48.508;9.206;2022-08-19T01:01:42;19.50;99.90
12845;DHT22;6489;48.508;9.206;2022-08-19T01:08:28;19.60;99.90
12845;DHT22;6489;48.508;9.206;2022-08-19T01:17:39;19.40;99.90
12845;DHT22;6489;48.508;9.206;2022-08-19T01:21:05;19.10;99.90
12845;DHT22;6489;48.508;9.206;2022-08-19T01:27:53;19.00;99.90
12845;DHT22;6489;48.508;9.206;2022-08-19T01:31:19;19.50;99.90
12845;DHT22;6489;48.508;9.206;2022-08-19T01:34:42;18.90;99.90
12845;DHT22;6489;48.508;9.206;2022-08-19T01:38:09;19.40;99.90
12845;DHT22;6489;48.508;9.206;2022-08-19T01:41:33;18.80;99.90
12845;DHT22;6489;48.508;9.206;2022-08-19T01:44:55;19.30;99.90
12845;DHT22;6489;48.508;9.206;2022-08-19T01:48:17;18.40;99.90
12845;DHT22;6489;48.508;9.206;2022-08-19T01:51:39;19.30;99.90
12845;DHT22;6489;48.508;9.206;2022-08-19T01:58:28;18.90;1.00
12845;DHT22;6489;48.508;9.206;2022-08-19T02:01:51;18.70;99.90
12845;DHT22;6489;48.508;9.206;2022-08-19T02:05:14;18.90;1.00
12845;DHT22;6489;48.508;9.206;2022-08-19T02:08:40;18.90;99.90
12845;DHT22;6489;48.508;9.206;2022-08-19T02:12:02;18.80;99.90
12845;DHT22;6489;48.508;9.206;2022-08-19T02:15:25;18.40;99.90
12845;DHT22;6489;48.508;9.206;2022-08-19T02:18:47;17.90;99.90
12845;DHT22;6489;48.508;9.206;2022-08-19T02:22:09;18.30;99.90
12845;DHT22;6489;48.508;9.206;2022-08-19T02:25:31;19.10;99.90
12845;DHT22;6489;48.508;9.206;2022-08-19T02:28:54;18.50;99.90
12845;DHT22;6489;48.508;9.206;2022-08-19T02:32:18;18.60;99.90
12845;DHT22;6489;48.508;9.206;2022-08-19T02:39:03;18.40;99.90
12845;DHT22;6489;48.508;9.206;2022-08-19T02:42:25;18.70;99.90
12845;DHT22;6489;48.508;9.206;2022-08-19T02:45:48;18.80;99.90
12845;DHT22;6489;48.508;9.206;2022-08-19T02:49:11;18.70;1.00
12845;DHT22;6489;48.508;9.206;2022-08-19T02:52:36;18.20;99.90
12845;DHT22;6489;48.508;9.206;2022-08-19T02:55:58;18.50;99.90
12845;DHT22;6489;48.508;9.206;2022-08-19T02:59:20;18.10;99.90
12845;DHT22;6489;48.508;9.206;2022-08-19T03:06:09;18.30;99.90
12845;DHT22;6489;48.508;9.206;2022-08-19T03:09:31;19.00;99.90
12845;DHT22;6489;48.508;9.206;2022-08-19T03:12:53;18.90;99.90
12845;DHT22;6489;48.508;9.206;2022-08-19T03:16:15;18.60;99.90
12845;DHT22;6489;48.508;9.206;2022-08-19T03:23:01;18.90;99.90
12845;DHT22;6489;48.508;9.206;2022-08-19T03:26:22;19.10;99.90
12845;DHT22;6489;48.508;9.206;2022-08-19T03:29:44;19.20;99.90
12845;DHT22;6489;48.508;9.206;2022-08-19T03:33:06;18.70;99.90
12845;DHT22;6489;48.508;9.206;2022-08-19T03:36:28;18.50;99.90
12845;DHT22;6489;48.508;9.206;2022-08-19T03:43:14;18.30;99.90
12845;DHT22;6489;48.508;9.206;2022-08-19T03:46:38;18.50;1.00
12845;DHT22;6489;48.508;9.206;2022-08-19T03:50:00;18.80;99.90
12845;DHT22;6489;48.508;9.206;2022-08-19T03:53:22;18.80;99.90
12845;DHT22;6489;48.508;9.206;2022-08-19T03:56:47;18.70;99.90
12845;DHT22;6489;48.508;9.206;2022-08-19T04:00:11;19.90;99.90
12845;DHT22;6489;48.508;9.206;2022-08-19T04:03:33;19.00;99.90
12845;DHT22;6489;48.508;9.206;2022-08-19T04:06:56;18.90;1.00
12845;DHT22;6489;48.508;9.206;2022-08-19T04:10:18;19.10;99.90
12845;DHT22;6489;48.508;9.206;2022-08-19T04:13:41;19.20;99.90
12845;DHT22;6489;48.508;9.206;2022-08-19T04:17:03;18.60;99.90
12845;DHT22;6489;48.508;9.206;2022-08-19T04:20:26;18.50;99.90
12845;DHT22;6489;48.508;9.206;2022-08-19T04:23:48;18.80;99.90
12845;DHT22;6489;48.508;9.206;2022-08-19T04:30:39;18.80;1.00
12845;DHT22;6489;48.508;9.206;2022-08-19T04:34:04;19.20;99.90
12845;DHT22;6489;48.508;9.206;2022-08-19T04:37:27;19.00;99.90
12845;DHT22;6489;48.508;9.206;2022-08-19T04:40:52;18.70;99.90
12845;DHT22;6489;48.508;9.206;2022-08-19T04:44:33;19.20;99.90
12845;DHT22;6489;48.508;9.206;2022-08-19T04:47:57;19.30;99.90
12845;DHT22;6489;48.508;9.206;2022-08-19T04:51:19;18.90;99.90
12845;DHT22;6489;48.508;9.206;2022-08-19T04:54:41;19.30;99.90
12845;DHT22;6489;48.508;9.206;2022-08-19T04:58:03;19.20;99.90
12845;DHT22;6489;48.508;9.206;2022-08-19T05:01:27;19.00;99.90
12845;DHT22;6489;48.508;9.206;2022-08-19T05:04:51;18.60;31.30
12845;DHT22;6489;48.508;9.206;2022-08-19T05:08:19;19.10;99.90
12845;DHT22;6489;48.508;9.206;2022-08-19T05:11:42;18.60;99.90
12845;DHT22;6489;48.508;9.206;2022-08-19T05:15:07;19.20;99.90
12845;DHT22;6489;48.508;9.206;2022-08-19T05:18:29;18.50;99.90
12845;DHT22;6489;48.508;9.206;2022-08-19T05:22:10;18.70;1.00
12845;DHT22;6489;48.508;9.206;2022-08-19T05:25:50;18.50;1.00
12845;DHT22;6489;48.508;9.206;2022-08-19T05:32:35;19.00;99.90
12845;DHT22;6489;48.508;9.206;2022-08-19T05:42:43;19.30;99.90
12845;DHT22;6489;48.508;9.206;2022-08-19T05:46:06;18.90;99.90
12845;DHT22;6489;48.508;9.206;2022-08-19T05:49:29;18.70;99.90
12845;DHT22;6489;48.508;9.206;2022-08-19T05:52:52;18.60;99.90
12845;DHT22;6489;48.508;9.206;2022-08-19T05:56:17;19.30;99.90
12845;DHT22;6489;48.508;9.206;2022-08-19T05:59:39;19.20;99.90
12845;DHT22;6489;48.508;9.206;2022-08-19T06:03:01;18.70;99.90
12845;DHT22;6489;48.508;9.206;2022-08-19T06:06:23;19.00;99.90
12845;DHT22;6489;48.508;9.206;2022-08-19T06:09:45;18.30;99.90
12845;DHT22;6489;48.508;9.206;2022-08-19T06:16:30;19.50;99.90
12845;DHT22;6489;48.508;9.206;2022-08-19T06:19:56;19.20;99.90
12845;DHT22;6489;48.508;9.206;2022-08-19T06:23:18;19.50;1.00
12845;DHT22;6489;48.508;9.206;2022-08-19T06:30:07;19.30;1.00
12845;DHT22;6489;48.508;9.206;2022-08-19T06:33:29;19.40;99.90
12845;DHT22;6489;48.508;9.206;2022-08-19T06:36:51;19.90;99.90
12845;DHT22;6489;48.508;9.206;2022-08-19T06:43:36;19.10;99.90
12845;DHT22;6489;48.508;9.206;2022-08-19T06:47:00;19.50;1.00
12845;DHT22;6489;48.508;9.206;2022-08-19T06:50:23;19.70;99.90
12845;DHT22;6489;48.508;9.206;2022-08-19T06:53:45;19.30;99.90
12845;DHT22;6489;48.508;9.206;2022-08-19T07:00:33;19.20;99.90
12845;DHT22;6489;48.508;9.206;2022-08-19T07:07:19;19.80;99.90
12845;DHT22;6489;48.508;9.206;2022-08-19T07:10:43;19.30;99.90
12845;DHT22;6489;48.508;9.206;2022-08-19T07:14:06;19.30;99.90
12845;DHT22;6489;48.508;9.206;2022-08-19T07:17:28;19.40;99.90
12845;DHT22;6489;48.508;9.206;2022-08-19T07:20:51;19.60;99.90
12845;DHT22;6489;48.508;9.206;2022-08-19T07:27:48;20.00;99.90
12845;DHT22;6489;48.508;9.206;2022-08-19T07:31:12;19.90;99.90
12845;DHT22;6489;48.508;9.206;2022-08-19T07:34:34;19.20;99.90
12845;DHT22;6489;48.508;9.206;2022-08-19T07:38:00;19.50;1.00
12845;DHT22;6489;48.508;9.206;2022-08-19T07:44:48;19.50;99.90
12845;DHT22;6489;48.508;9.206;2022-08-19T07:48:10;18.80;99.90
12845;DHT22;6489;48.508;9.206;2022-08-19T07:51:34;19.20;99.90
12845;DHT22;6489;48.508;9.206;2022-08-19T07:54:58;19.40;1.00
12845;DHT22;6489;48.508;9.206;2022-08-19T07:58:23;19.90;99.90
12845;DHT22;6489;48.508;9.206;2022-08-19T08:01:45;20.00;99.90
12845;DHT22;6489;48.508;9.206;2022-08-19T08:05:08;19.40;99.90
12845;DHT22;6489;48.508;9.206;2022-08-19T08:08:47;19.00;99.90
12845;DHT22;6489;48.508;9.206;2022-08-19T08:15:53;19.10;99.90
12845;DHT22;6489;48.508;9.206;2022-08-19T08:19:16;18.90;99.90
12845;DHT22;6489;48.508;9.206;2022-08-19T08:22:43;19.20;1.00
12845;DHT22;6489;48.508;9.206;2022-08-19T08:26:22;19.80;99.90
12845;DHT22;6489;48.508;9.206;2022-08-19T08:33:09;19.30;99.90
12845;DHT22;6489;48.508;9.206;2022-08-19T08:36:31;21.20;99.90
12845;DHT22;6489;48.508;9.206;2022-08-19T08:39:54;19.50;99.90
12845;DHT22;6489;48.508;9.206;2022-08-19T08:43:22;19.30;1.00
12845;DHT22;6489;48.508;9.206;2022-08-19T08:46:48;19.30;1.00
12845;DHT22;6489;48.508;9.206;2022-08-19T08:50:14;19.30;1.00
12845;DHT22;6489;48.508;9.206;2022-08-19T08:57:01;19.50;99.90
12845;DHT22;6489;48.508;9.206;2022-08-19T09:00:26;19.10;1.00
12845;DHT22;6489;48.508;9.206;2022-08-19T09:03:50;19.10;1.00
12845;DHT22;6489;48.508;9.206;2022-08-19T09:07:20;19.10;1.00
12845;DHT22;6489;48.508;9.206;2022-08-19T09:14:18;19.10;1.00
12845;DHT22;6489;48.508;9.206;2022-08-19T09:17:40;19.30;99.90
12845;DHT22;6489;48.508;9.206;2022-08-19T09:21:03;19.00;1.00
12845;DHT22;6489;48.508;9.206;2022-08-19T09:24:25;19.10;99.90
12845;DHT22;6489;48.508;9.206;2022-08-19T09:27:47;19.10;1.00
12845;DHT22;6489;48.508;9.206;2022-08-19T09:31:10;19.20;99.90
12845;DHT22;6489;48.508;9.206;2022-08-19T09:34:32;19.00;99.90
12845;DHT22;6489;48.508;9.206;2022-08-19T09:37:55;18.50;99.90
12845;DHT22;6489;48.508;9.206;2022-08-19T09:44:41;18.20;99.90
12845;DHT22;6489;48.508;9.206;2022-08-19T09:51:27;18.80;1.00
12845;DHT22;6489;48.508;9.206;2022-08-19T09:54:53;18.80;1.20
12845;DHT22;6489;48.508;9.206;2022-08-19T09:58:14;19.00;99.90
12845;DHT22;6489;48.508;9.206;2022-08-19T10:03:38;18.80;1.00
12845;DHT22;6489;48.508;9.206;2022-08-19T10:06:59;19.30;99.90
12845;DHT22;6489;48.508;9.206;2022-08-19T10:10:21;18.40;99.90
12845;DHT22;6489;48.508;9.206;2022-08-19T10:13:44;19.20;99.90
12845;DHT22;6489;48.508;9.206;2022-08-19T10:17:06;18.80;1.00
12845;DHT22;6489;48.508;9.206;2022-08-19T10:20:30;18.80;1.00
12845;DHT22;6489;48.508;9.206;2022-08-19T10:23:54;18.70;1.00
12845;DHT22;6489;48.508;9.206;2022-08-19T10:27:16;19.00;99.90
12845;DHT22;6489;48.508;9.206;2022-08-19T10:30:39;18.30;99.90
12845;DHT22;6489;48.508;9.206;2022-08-19T10:34:01;19.20;99.90
12845;DHT22;6489;48.508;9.206;2022-08-19T10:40:46;20.10;99.90
12845;DHT22;6489;48.508;9.206;2022-08-19T10:50:54;18.70;99.90
12845;DHT22;6489;48.508;9.206;2022-08-19T10:54:37;18.60;99.90
12845;DHT22;6489;48.508;9.206;2022-08-19T10:58:18;19.00;99.90
12845;DHT22;6489;48.508;9.206;2022-08-19T11:01:45;18.80;99.90
12845;DHT22;6489;48.508;9.206;2022-08-19T11:05:09;18.70;99.90
12845;DHT22;6489;48.508;9.206;2022-08-19T11:08:33;18.60;99.90
12845;DHT22;6489;48.508;9.206;2022-08-19T11:15:18;18.60;99.90
12845;DHT22;6489;48.508;9.206;2022-08-19T11:18:42;18.50;99.90
12845;DHT22;6489;48.508;9.206;2022-08-19T11:22:07;18.70;1.00
12845;DHT22;6489;48.508;9.206;2022-08-19T11:25:29;19.00;86.00
12845;DHT22;6489;48.508;9.206;2022-08-19T11:32:15;18.70;99.90
12845;DHT22;6489;48.508;9.206;2022-08-19T11:39:04;19.20;99.90
12845;DHT22;6489;48.508;9.206;2022-08-19T11:49:34;18.70;99.90
12845;DHT22;6489;48.508;9.206;2022-08-19T11:52:57;19.30;99.90
12845;DHT22;6489;48.508;9.206;2022-08-19T11:59:41;19.10;99.90
12845;DHT22;6489;48.508;9.206;2022-08-19T12:03:04;19.30;99.90
12845;DHT22;6489;48.508;9.206;2022-08-19T12:06:29;18.80;99.90
12845;DHT22;6489;48.508;9.206;2022-08-19T12:09:52;19.00;99.90
12845;DHT22;6489;48.508;9.206;2022-08-19T12:13:14;18.80;99.90
12845;DHT22;6489;48.508;9.206;2022-08-19T12:16:39;19.20;99.90
12845;DHT22;6489;48.508;9.206;2022-08-19T12:20:04;18.90;23.70
12845;DHT22;6489;48.508;9.206;2022-08-19T12:23:26;18.70;99.90
12845;DHT22;6489;48.508;9.206;2022-08-19T12:30:12;18.90;34.40
12845;DHT22;6489;48.508;9.206;2022-08-19T12:37:01;19.00;99.90
12845;DHT22;6489;48.508;9.206;2022-08-19T12:40:23;19.40;99.90
12845;DHT22;6489;48.508;9.206;2022-08-19T12:43:45;19.00;34.50
12845;DHT22;6489;48.508;9.206;2022-08-19T12:47:10;19.10;99.90
12845;DHT22;6489;48.508;9.206;2022-08-19T12:50:32;19.20;99.90
12845;DHT22;6489;48.508;9.206;2022-08-19T12:53:55;18.70;99.90
12845;DHT22;6489;48.508;9.206;2022-08-19T13:07:24;19.30;99.90
12845;DHT22;6489;48.508;9.206;2022-08-19T13:14:09;19.20;99.90
12845;DHT22;6489;48.508;9.206;2022-08-19T13:20:55;19.30;99.90
12845;DHT22;6489;48.508;9.206;2022-08-19T13:24:18;19.30;99.90
12845;DHT22;6489;48.508;9.206;2022-08-19T13:31:03;19.50;99.90
12845;DHT22;6489;48.508;9.206;2022-08-19T13:34:54;19.70;99.90
12845;DHT22;6489;48.508;9.206;2022-08-19T13:38:17;19.70;99.90
12845;DHT22;6489;48.508;9.206;2022-08-19T13:41:43;19.80;1.00
12845;DHT22;6489;48.508;9.206;2022-08-19T13:55:17;19.20;99.90
12845;DHT22;6489;48.508;9.206;2022-08-19T13:58:39;19.70;99.90
12845;DHT22;6489;48.508;9.206;2022-08-19T14:02:02;19.80;99.90
12845;DHT22;6489;48.508;9.206;2022-08-19T14:05:27;19.80;99.90
12845;DHT22;6489;48.508;9.206;2022-08-19T14:08:49;19.50;1.00
12845;DHT22;6489;48.508;9.206;2022-08-19T14:12:13;19.50;99.90
12845;DHT22;6489;48.508;9.206;2022-08-19T14:15:35;19.80;99.90
12845;DHT22;6489;48.508;9.206;2022-08-19T14:18:59;19.30;1.00
12845;DHT22;6489;48.508;9.206;2022-08-19T14:22:20;19.20;99.90
12845;DHT22;6489;48.508;9.206;2022-08-19T14:25:43;19.00;99.90
12845;DHT22;6489;48.508;9.206;2022-08-19T14:29:05;19.30;99.90
12845;DHT22;6489;48.508;9.206;2022-08-19T14:39:12;19.50;1.00
12845;DHT22;6489;48.508;9.206;2022-08-19T14:42:35;19.40;99.90
12845;DHT22;6489;48.508;9.206;2022-08-19T14:45:56;19.40;99.90
12845;DHT22;6489;48.508;9.206;2022-08-19T14:49:18;19.50;99.90
12845;DHT22;6489;48.508;9.206;2022-08-19T14:52:42;19.20;1.00
12845;DHT22;6489;48.508;9.206;2022-08-19T14:56:07;19.20;1.00
12845;DHT22;6489;48.508;9.206;2022-08-19T14:59:30;18.90;99.90
12845;DHT22;6489;48.508;9.206;2022-08-19T15:02:52;19.50;99.90
12845;DHT22;6489;48.508;9.206;2022-08-19T15:09:38;19.30;1.00
12845;DHT22;6489;48.508;9.206;2022-08-19T15:13:01;18.60;99.90
12845;DHT22;6489;48.508;9.206;2022-08-19T15:16:23;19.40;99.90
12845;DHT22;6489;48.508;9.206;2022-08-19T15:26:32;19.20;1.00
12845;DHT22;6489;48.508;9.206;2022-08-19T15:29:54;19.00;99.90
12845;DHT22;6489;48.508;9.206;2022-08-19T15:33:17;18.90;99.90
12845;DHT22;6489;48.508;9.206;2022-08-19T15:40:03;19.10;99.90
12845;DHT22;6489;48.508;9.206;2022-08-19T15:43:26;19.60;99.90
12845;DHT22;6489;48.508;9.206;2022-08-19T15:50:14;20.20;99.90
12845;DHT22;6489;48.508;9.206;2022-08-19T15:53:37;20.20;99.90
12845;DHT22;6489;48.508;9.206;2022-08-19T15:57:00;19.90;14.70
12845;DHT22;6489;48.508;9.206;2022-08-19T16:00:40;19.80;1.00
12845;DHT22;6489;48.508;9.206;2022-08-19T16:04:19;19.70;99.90
12845;DHT22;6489;48.508;9.206;2022-08-19T16:07:58;19.60;99.90
12845;DHT22;6489;48.508;9.206;2022-08-19T16:14:44;19.80;99.90
12845;DHT22;6489;48.508;9.206;2022-08-19T16:18:09;20.00;1.00
12845;DHT22;6489;48.508;9.206;2022-08-19T16:21:33;20.00;1.00
12845;DHT22;6489;48.508;9.206;2022-08-19T16:24:55;20.10;99.90
12845;DHT22;6489;48.508;9.206;2022-08-19T16:28:17;20.30;99.90
12845;DHT22;6489;48.508;9.206;2022-08-19T16:31:40;19.90;99.90
12845;DHT22;6489;48.508;9.206;2022-08-19T16:35:05;20.10;99.90
12845;DHT22;6489;48.508;9.206;2022-08-19T16:38:27;19.70;99.90
12845;DHT22;6489;48.508;9.206;2022-08-19T16:41:49;20.50;99.90
12845;DHT22;6489;48.508;9.206;2022-08-19T16:45:11;20.30;99.90
12845;DHT22;6489;48.508;9.206;2022-08-19T16:48:33;20.30;99.90
12845;DHT22;6489;48.508;9.206;2022-08-19T16:51:57;20.60;99.90
12845;DHT22;6489;48.508;9.206;2022-08-19T16:55:19;19.80;99.90
12845;DHT22;6489;48.508;9.206;2022-08-19T16:58:40;20.60;99.90
12845;DHT22;6489;48.508;9.206;2022-08-19T17:02:03;20.40;1.00
12845;DHT22;6489;48.508;9.206;2022-08-19T17:05:25;19.60;99.90
12845;DHT22;6489;48.508;9.206;2022-08-19T17:08:49;20.60;99.90
12845;DHT22;6489;48.508;9.206;2022-08-19T17:19:00;20.00;99.90
12845;DHT22;6489;48.508;9.206;2022-08-19T17:22:22;20.70;99.90
12845;DHT22;6489;48.508;9.206;2022-08-19T17:25:45;20.80;99.90
12845;DHT22;6489;48.508;9.206;2022-08-19T17:29:07;20.80;99.90
12845;DHT22;6489;48.508;9.206;2022-08-19T17:32:29;21.10;99.90
12845;DHT22;6489;48.508;9.206;2022-08-19T17:35:55;20.60;99.90
12845;DHT22;6489;48.508;9.206;2022-08-19T17:39:16;20.30;99.90
12845;DHT22;6489;48.508;9.206;2022-08-19T17:42:40;20.50;1.00
12845;DHT22;6489;48.508;9.206;2022-08-19T17:49:24;20.80;99.90
12845;DHT22;6489;48.508;9.206;2022-08-19T17:52:46;20.50;99.90
12845;DHT22;6489;48.508;9.206;2022-08-19T18:02:59;20.10;99.90
12845;DHT22;6489;48.508;9.206;2022-08-19T18:09:44;19.50;99.90
12845;DHT22;6489;48.508;9.206;2022-08-19T18:13:10;20.90;99.90
12845;DHT22;6489;48.508;9.206;2022-08-19T18:16:34;20.40;1.00
12845;DHT22;6489;48.508;9.206;2022-08-19T18:23:21;20.40;99.90
12845;DHT22;6489;48.508;9.206;2022-08-19T18:26:43;20.40;99.90
12845;DHT22;6489;48.508;9.206;2022-08-19T18:33:29;20.30;99.90
12845;DHT22;6489;48.508;9.206;2022-08-19T18:36:51;20.70;99.90
12845;DHT22;6489;48.508;9.206;2022-08-19T18:40:17;20.10;99.90
12845;DHT22;6489;48.508;9.206;2022-08-19T18:47:48;20.10;99.90
12845;DHT22;6489;48.508;9.206;2022-08-19T18:51:29;20.60;99.90
12845;DHT22;6489;48.508;9.206;2022-08-19T19:01:38;20.10;99.90
12845;DHT22;6489;48.508;9.206;2022-08-19T19:05:00;19.90;1.00
12845;DHT22;6489;48.508;9.206;2022-08-19T19:08:24;19.50;99.90
12845;DHT22;6489;48.508;9.206;2022-08-19T19:11:47;19.80;99.90
12845;DHT22;6489;48.508;9.206;2022-08-19T19:15:10;20.00;1.00
12845;DHT22;6489;48.508;9.206;2022-08-19T19:18:32;20.20;99.90
12845;DHT22;6489;48.508;9.206;2022-08-19T19:21:54;20.30;99.90
12845;DHT22;6489;48.508;9.206;2022-08-19T19:25:18;19.80;1.00
12845;DHT22;6489;48.508;9.206;2022-08-19T19:28:41;19.90;99.90
12845;DHT22;6489;48.508;9.206;2022-08-19T19:35:30;19.90;99.90
12845;DHT22;6489;48.508;9.206;2022-08-19T19:42:18;19.60;99.90
12845;DHT22;6489;48.508;9.206;2022-08-19T19:45:40;19.60;99.90
12845;DHT22;6489;48.508;9.206;2022-08-19T19:49:02;20.70;1.00
12845;DHT22;6489;48.508;9.206;2022-08-19T19:52:24;19.40;99.90
12845;DHT22;6489;48.508;9.206;2022-08-19T19:55:46;19.70;99.90
12845;DHT22;6489;48.508;9.206;2022-08-19T20:02:31;19.50;1.00
12845;DHT22;6489;48.508;9.206;2022-08-19T20:09:20;19.50;1.00
12845;DHT22;6489;48.508;9.206;2022-08-19T20:12:41;18.80;1.00
12845;DHT22;6489;48.508;9.206;2022-08-19T20:16:05;19.50;99.90
12845;DHT22;6489;48.508;9.206;2022-08-19T20:19:29;19.50;1.00
12845;DHT22;6489;48.508;9.206;2022-08-19T20:22:56;19.50;99.90
12845;DHT22;6489;48.508;9.206;2022-08-19T20:29:40;19.70;99.90
12845;DHT22;6489;48.508;9.206;2022-08-19T20:33:04;19.60;1.00
12845;DHT22;6489;48.508;9.206;2022-08-19T20:36:26;19.60;99.90
12845;DHT22;6489;48.508;9.206;2022-08-19T20:39:48;19.60;99.90
12845;DHT22;6489;48.508;9.206;2022-08-19T20:43:11;19.70;1.00
12845;DHT22;6489;48.508;9.206;2022-08-19T20:46:33;20.10;99.90
12845;DHT22;6489;48.508;9.206;2022-08-19T20:49:56;20.10;99.90
12845;DHT22;6489;48.508;9.206;2022-08-19T20:53:19;19.70;1.00
12845;DHT22;6489;48.508;9.206;2022-08-19T20:56:42;19.40;99.90
12845;DHT22;6489;48.508;9.206;2022-08-19T21:03:33;19.60;1.00
12845;DHT22;6489;48.508;9.206;2022-08-19T21:06:57;19.70;99.90
12845;DHT22;6489;48.508;9.206;2022-08-19T21:13:41;19.70;99.90
12845;DHT22;6489;48.508;9.206;2022-08-19T21:17:03;19.60;99.90
12845;DHT22;6489;48.508;9.206;2022-08-19T21:20:25;20.00;99.90
12845;DHT22;6489;48.508;9.206;2022-08-19T21:23:48;19.50;1.00
12845;DHT22;6489;48.508;9.206;2022-08-19T21:30:33;19.80;99.90
12845;DHT22;6489;48.508;9.206;2022-08-19T21:33:55;19.70;90.50
12845;DHT22;6489;48.508;9.206;2022-08-19T21:37:16;19.70;99.90
12845;DHT22;6489;48.508;9.206;2022-08-19T21:40:41;19.90;1.00
12845;DHT22;6489;48.508;9.206;2022-08-19T21:47:25;19.30;92.90
12845;DHT22;6489;48.508;9.206;2022-08-19T21:50:47;20.20;81.60
12845;DHT22;6489;48.508;9.206;2022-08-19T21:54:10;20.10;87.80
12845;DHT22;6489;48.508;9.206;2022-08-19T21:57:33;19.70;84.70
12845;DHT22;6489;48.508;9.206;2022-08-19T22:00:55;19.70;60.60
12845;DHT22;6489;48.508;9.206;2022-08-19T22:07:39;18.90;61.70
12845;DHT22;6489;48.508;9.206;2022-08-19T22:11:03;20.30;64.10
12845;DHT22;6489;48.508;9.206;2022-08-19T22:14:26;20.00;68.40
12845;DHT22;6489;48.508;9.206;2022-08-19T22:17:48;19.60;75.80
12845;DHT22;6489;48.508;9.206;2022-08-19T22:21:10;22.40;99.90
12845;DHT22;6489;48.508;9.206;2022-08-19T22:24:32;19.50;49.80
12845;DHT22;6489;48.508;9.206;2022-08-19T22:27:55;19.70;1.00
12845;DHT22;6489;48.508;9.206;2022-08-19T22:31:19;20.10;53.40
12845;DHT22;6489;48.508;9.206;2022-08-19T22:34:41;19.80;49.50
12845;DHT22;6489;48.508;9.206;2022-08-19T22:38:04;19.80;29.10
12845;DHT22;6489;48.508;9.206;2022-08-19T22:44:48;19.70;46.90
12845;DHT22;6489;48.508;9.206;2022-08-19T22:48:15;19.60;1.00
12845;DHT22;6489;48.508;9.206;2022-08-19T22:51:37;19.80;39.20
12845;DHT22;6489;48.508;9.206;2022-08-19T22:55:16;19.70;1.00
12845;DHT22;6489;48.508;9.206;2022-08-19T23:02:02;19.40;18.30
12845;DHT22;6489;48.508;9.206;2022-08-19T23:05:26;19.60;1.00
12845;DHT22;6489;48.508;9.206;2022-08-19T23:12:12;19.70;1.00
12845;DHT22;6489;48.508;9.206;2022-08-19T23:15:34;19.80;1.00
12845;DHT22;6489;48.508;9.206;2022-08-19T23:18:56;19.80;9.50
12845;DHT22;6489;48.508;9.206;2022-08-19T23:25:41;20.00;1.60
12845;DHT22;6489;48.508;9.206;2022-08-19T23:32:44;19.60;15.30
12845;DHT22;6489;48.508;9.206;2022-08-19T23:36:08;19.40;36.10
12845;DHT22;6489;48.508;9.206;2022-08-19T23:39:32;19.70;54.80
12845;DHT22;6489;48.508;9.206;2022-08-19T23:42:54;19.30;86.40
12845;DHT22;6489;48.508;9.206;2022-08-19T23:46:16;19.90;64.90
12845;DHT22;6489;48.508;9.206;2022-08-19T23:53:02;19.30;99.90
12845;DHT22;6489;48.508;9.206;2022-08-19T23:56:26;19.20;99.90
